createdAt,value
2022-08-11T00:00:10.353Z,99.90
2022-08-11T00:02:40.549Z,99.90
2022-08-11T00:05:10.717Z,99.90
2022-08-11T00:07:45.952Z,99.90
2022-08-11T00:10:16.383Z,99.90
2022-08-11T00:12:45.803Z,99.90
2022-08-11T00:15:18.359Z,99.90
2022-08-11T00:17:48.055Z,99.90
2022-08-11T00:20:17.384Z,99.90
2022-08-11T00:22:51.100Z,99.90
2022-08-11T00:25:25.241Z,99.90
2022-08-11T00:27:55.551Z,99.90
2022-08-11T00:30:47.204Z,99.90
2022-08-11T00:33:21.096Z,99.90
2022-08-11T00:36:15.395Z,99.90
2022-08-11T00:39:30.097Z,99.90
2022-08-11T00:42:19.265Z,99.90
2022-08-11T00:44:57.824Z,99.90
2022-08-11T00:47:30.473Z,99.90
2022-08-11T00:50:06.294Z,99.90
2022-08-11T00:52:46.317Z,99.90
2022-08-11T00:55:42.908Z,99.90
2022-08-11T00:58:31.796Z,99.90
2022-08-11T01:01:31.996Z,99.90
2022-08-11T01:04:21.668Z,99.90
2022-08-11T01:06:59.275Z,99.90
2022-08-11T01:09:40.779Z,99.90
2022-08-11T01:12:37.840Z,99.90
2022-08-11T01:15:22.195Z,99.90
2022-08-11T01:18:10.396Z,99.90
2022-08-11T01:20:53.881Z,99.90
2022-08-11T01:23:51.050Z,99.90
2022-08-11T01:26:47.468Z,99.90
2022-08-11T01:29:35.384Z,99.90
2022-08-11T01:32:22.227Z,99.90
2022-08-11T01:35:09.188Z,99.90
2022-08-11T01:37:56.879Z,99.90
2022-08-11T01:40:32.001Z,99.90
2022-08-11T01:43:41.481Z,99.90
2022-08-11T01:46:15.055Z,99.90
2022-08-11T01:48:45.204Z,99.90
2022-08-11T01:51:21.214Z,99.90
2022-08-11T01:53:54.960Z,99.90
2022-08-11T01:56:46.677Z,99.90
2022-08-11T01:59:26.562Z,99.90
2022-08-11T02:02:11.167Z,99.90
2022-08-11T02:04:52.719Z,99.90
2022-08-11T02:07:26.396Z,99.90
2022-08-11T02:10:35.098Z,99.90
2022-08-11T02:13:14.024Z,99.90
2022-08-11T02:15:45.008Z,99.90
2022-08-11T02:18:17.321Z,99.90
2022-08-11T02:21:07.147Z,99.90
2022-08-11T02:24:06.290Z,99.90
2022-08-11T02:26:38.003Z,99.90
2022-08-11T02:29:12.140Z,99.90
2022-08-11T02:32:29.905Z,99.90
2022-08-11T02:35:15.657Z,99.90
2022-08-11T02:37:50.506Z,99.90
2022-08-11T02:40:31.842Z,99.90
2022-08-11T02:43:11.568Z,99.90
2022-08-11T02:45:54.789Z,99.90
2022-08-11T02:48:48.576Z,99.90
2022-08-11T02:51:22.462Z,99.90
2022-08-11T02:53:56.305Z,99.90
2022-08-11T02:56:44.872Z,99.90
2022-08-11T02:59:39.196Z,99.90
2022-08-11T03:02:17.564Z,99.90
2022-08-11T03:04:53.254Z,99.90
2022-08-11T03:07:28.755Z,99.90
2022-08-11T03:10:01.888Z,99.90
2022-08-11T03:13:05.641Z,99.90
2022-08-11T03:16:01.913Z,99.90
2022-08-11T03:18:34.584Z,99.90
2022-08-11T03:21:07.752Z,99.90
2022-08-11T03:23:41.444Z,99.90
2022-08-11T03:26:15.987Z,99.90
2022-08-11T03:28:49.883Z,99.90
2022-08-11T03:31:25.080Z,99.90
2022-08-11T03:34:06.697Z,99.90
2022-08-11T03:37:16.170Z,99.90
2022-08-11T03:39:57.217Z,99.90
2022-08-11T03:42:28.555Z,99.90
2022-08-11T03:45:18.636Z,99.90
2022-08-11T03:47:55.541Z,99.90
2022-08-11T03:50:30.443Z,99.90
2022-08-11T03:53:14.048Z,99.90
2022-08-11T03:56:11.577Z,99.90
2022-08-11T03:58:54.827Z,99.90
2022-08-11T04:01:40.448Z,99.90
2022-08-11T04:04:27.134Z,99.90
2022-08-11T04:07:04.129Z,99.90
2022-08-11T04:09:50.399Z,99.90
2022-08-11T04:12:37.904Z,99.90
2022-08-11T04:15:32.465Z,99.90
2022-08-11T04:18:21.246Z,99.90
2022-08-11T04:21:03.319Z,99.90
2022-08-11T04:24:36.798Z,99.90
2022-08-11T04:27:15.031Z,99.90
2022-08-11T04:30:00.954Z,99.90
2022-08-11T04:32:48.981Z,99.90
2022-08-11T04:35:35.694Z,99.90
2022-08-11T04:38:27.626Z,99.90
2022-08-11T04:41:21.798Z,99.90
2022-08-11T04:44:20.965Z,99.90
2022-08-11T04:47:07.194Z,99.90
2022-08-11T04:50:19.639Z,99.90
2022-08-11T04:53:20.236Z,99.90
2022-08-11T04:56:17.560Z,99.90
2022-08-11T04:59:10.995Z,99.90
2022-08-11T05:01:54.685Z,99.90
2022-08-11T05:04:57.642Z,99.90
2022-08-11T05:07:48.629Z,99.90
2022-08-11T05:10:24.293Z,99.90
2022-08-11T05:13:18.347Z,99.90
2022-08-11T05:16:05.943Z,99.90
2022-08-11T05:18:53.776Z,99.90
2022-08-11T05:21:44.524Z,99.90
2022-08-11T05:24:35.836Z,99.90
2022-08-11T05:27:22.064Z,99.90
2022-08-11T05:30:15.568Z,99.90
2022-08-11T05:33:21.147Z,99.90
2022-08-11T05:36:18.715Z,99.90
2022-08-11T05:39:13.320Z,99.90
2022-08-11T05:42:00.109Z,99.90
2022-08-11T05:45:15.589Z,99.90
2022-08-11T05:48:07.457Z,99.90
2022-08-11T05:50:53.681Z,99.90
2022-08-11T05:53:46.652Z,99.90
2022-08-11T05:56:20.864Z,99.90
2022-08-11T05:58:51.828Z,99.90
2022-08-11T06:01:24.744Z,99.90
2022-08-11T06:06:45.347Z,99.90
2022-08-11T06:09:16.202Z,99.90
2022-08-11T06:11:46.145Z,99.90
2022-08-11T06:14:15.659Z,99.90
2022-08-11T06:16:44.980Z,99.90
2022-08-11T06:19:13.803Z,99.90
2022-08-11T06:21:46.436Z,99.90
2022-08-11T06:24:15.680Z,99.90
2022-08-11T06:27:11.197Z,99.90
2022-08-11T06:29:48.054Z,99.90
2022-08-11T06:33:06.558Z,99.90
2022-08-11T06:35:40.018Z,99.90
2022-08-11T06:38:10.825Z,99.90
2022-08-11T06:40:43.319Z,99.90
2022-08-11T06:46:51.125Z,99.90
2022-08-11T06:49:37.327Z,99.90
2022-08-11T06:52:06.767Z,99.90
2022-08-11T06:54:49.895Z,99.90
2022-08-11T06:57:37.725Z,99.90
2022-08-11T07:00:24.393Z,99.90
2022-08-11T07:03:02.091Z,99.90
2022-08-11T07:05:39.694Z,99.90
2022-08-11T07:08:44.514Z,99.90
2022-08-11T07:11:39.446Z,99.90
2022-08-11T07:14:44.821Z,99.90
2022-08-11T07:17:41.741Z,99.90
2022-08-11T07:20:30.836Z,99.90
2022-08-11T07:23:21.148Z,99.90
2022-08-11T07:26:22.786Z,99.90
2022-08-11T07:28:58.832Z,99.90
2022-08-11T07:31:42.349Z,99.90
2022-08-11T07:34:19.769Z,99.90
2022-08-11T07:39:19.928Z,99.90
2022-08-11T07:41:58.368Z,99.90
2022-08-11T07:44:34.624Z,99.90
2022-08-11T07:47:20.959Z,99.90
2022-08-11T07:50:07.604Z,99.90
2022-08-11T07:52:38.483Z,99.90
2022-08-11T07:55:20.566Z,99.90
2022-08-11T07:58:59.205Z,99.90
2022-08-11T08:01:52.082Z,99.90
2022-08-11T08:04:38.506Z,99.90
2022-08-11T08:07:24.610Z,99.90
2022-08-11T08:10:15.920Z,99.90
2022-08-11T08:13:30.925Z,99.90
2022-08-11T08:16:23.219Z,99.90
2022-08-11T08:18:57.543Z,99.90
2022-08-11T08:21:26.110Z,99.90
2022-08-11T08:23:56.951Z,99.90
2022-08-11T08:26:52.608Z,99.90
2022-08-11T08:29:39.132Z,99.50
2022-08-11T08:32:18.065Z,99.50
2022-08-11T08:34:57.288Z,99.40
2022-08-11T08:37:45.323Z,99.90
2022-08-11T08:40:43.324Z,99.40
2022-08-11T08:43:17.569Z,99.90
2022-08-11T08:45:46.760Z,99.70
2022-08-11T08:48:18.174Z,98.80
2022-08-11T08:51:08.067Z,98.60
2022-08-11T08:53:52.306Z,98.80
2022-08-11T08:56:28.495Z,98.70
2022-08-11T08:58:58.825Z,98.00
2022-08-11T09:01:30.094Z,98.80
2022-08-11T09:04:07.324Z,97.90
2022-08-11T09:06:41.157Z,99.70
2022-08-11T09:09:10.201Z,97.60
2022-08-11T09:11:53.702Z,96.80
2022-08-11T09:14:25.469Z,96.80
2022-08-11T09:16:55.106Z,96.80
2022-08-11T09:22:09.658Z,96.90
2022-08-11T09:25:01.607Z,97.50
2022-08-11T09:27:36.514Z,96.40
2022-08-11T09:30:06.148Z,95.10
2022-08-11T09:33:05.053Z,95.50
2022-08-11T09:35:36.909Z,95.10
2022-08-11T09:38:25.099Z,95.20
2022-08-11T09:40:56.981Z,94.40
2022-08-11T09:43:44.700Z,94.80
2022-08-11T09:46:14.560Z,94.40
2022-08-11T09:48:46.126Z,94.80
2022-08-11T09:51:14.976Z,95.00
2022-08-11T09:54:03.003Z,94.60
2022-08-11T09:56:52.119Z,93.90
2022-08-11T09:59:22.679Z,93.90
2022-08-11T10:01:53.987Z,93.60
2022-08-11T10:04:28.818Z,94.20
2022-08-11T10:07:04.786Z,93.50
2022-08-11T10:09:38.526Z,93.90
2022-08-11T10:12:08.357Z,94.30
2022-08-11T10:14:56.247Z,94.60
2022-08-11T10:17:25.626Z,93.80
2022-08-11T10:20:05.244Z,94.90
2022-08-11T10:23:23.541Z,94.30
2022-08-11T10:26:22.469Z,94.80
2022-08-11T10:29:12.104Z,94.10
2022-08-11T10:32:04.671Z,93.40
2022-08-11T10:34:36.106Z,93.50
2022-08-11T10:37:15.016Z,93.00
2022-08-11T10:39:45.200Z,93.00
2022-08-11T10:43:00.100Z,93.70
2022-08-11T10:45:54.593Z,93.90
2022-08-11T10:48:26.327Z,93.30
2022-08-11T10:51:12.000Z,93.10
2022-08-11T10:54:03.600Z,92.60
2022-08-11T10:56:56.747Z,93.30
2022-08-11T10:59:28.133Z,94.00
2022-08-11T11:01:59.280Z,93.00
2022-08-11T11:04:31.151Z,92.50
2022-08-11T11:07:05.445Z,92.30
2022-08-11T11:09:34.816Z,93.10
2022-08-11T11:12:22.986Z,93.70
2022-08-11T11:15:10.219Z,92.70
2022-08-11T11:18:15.107Z,91.90
2022-08-11T11:20:47.897Z,90.80
2022-08-11T11:23:18.814Z,90.70
2022-08-11T11:26:10.341Z,89.60
2022-08-11T11:28:50.634Z,90.20
2022-08-11T11:31:33.445Z,90.00
2022-08-11T11:34:12.518Z,88.00
2022-08-11T11:37:12.677Z,88.80
2022-08-11T11:39:42.773Z,90.40
2022-08-11T11:42:40.143Z,88.90
2022-08-11T11:45:10.036Z,87.80
2022-08-11T11:47:53.802Z,90.00
2022-08-11T11:50:31.770Z,88.30
2022-08-11T11:53:08.979Z,88.90
2022-08-11T11:55:39.542Z,89.20
2022-08-11T11:58:26.169Z,89.10
2022-08-11T12:01:14.802Z,89.00
2022-08-11T12:03:45.198Z,87.80
2022-08-11T12:06:15.020Z,87.40
2022-08-11T12:08:43.880Z,88.20
2022-08-11T12:11:31.872Z,86.20
2022-08-11T12:14:10.309Z,86.00
2022-08-11T12:16:45.842Z,87.00
2022-08-11T12:19:15.870Z,86.20
2022-08-11T12:22:01.005Z,87.80
2022-08-11T12:24:55.581Z,87.70
2022-08-11T12:27:29.825Z,84.80
2022-08-11T12:29:59.774Z,84.70
2022-08-11T12:32:29.596Z,84.90
2022-08-11T12:35:05.393Z,86.40
2022-08-11T12:37:37.160Z,87.30
2022-08-11T12:40:42.885Z,85.70
2022-08-11T12:43:37.094Z,87.10
2022-08-11T12:46:18.406Z,84.00
2022-08-11T12:49:05.338Z,85.70
2022-08-11T12:52:00.856Z,84.80
2022-08-11T12:54:52.910Z,85.00
2022-08-11T12:57:58.674Z,85.40
2022-08-11T13:00:46.613Z,84.50
2022-08-11T13:03:33.080Z,85.00
2022-08-11T13:06:04.303Z,87.20
2022-08-11T13:08:35.797Z,85.70
2022-08-11T13:11:19.279Z,87.60
2022-08-11T13:13:53.954Z,84.50
2022-08-11T13:16:29.532Z,83.30
2022-08-11T13:19:04.411Z,84.10
2022-08-11T13:21:33.183Z,85.70
2022-08-11T13:24:03.525Z,83.00
2022-08-11T13:26:48.042Z,83.80
2022-08-11T13:29:27.413Z,84.10
2022-08-11T13:32:00.067Z,82.40
2022-08-11T13:34:31.411Z,84.10
2022-08-11T13:38:27.513Z,83.50
2022-08-11T13:40:33.332Z,84.50
2022-08-11T13:43:27.523Z,84.70
2022-08-11T13:46:17.288Z,83.50
2022-08-11T13:48:48.023Z,84.60
2022-08-11T13:51:34.542Z,84.70
2022-08-11T13:54:32.119Z,83.60
2022-08-11T13:57:03.504Z,84.50
2022-08-11T13:59:52.053Z,84.50
2022-08-11T14:02:30.597Z,84.40
2022-08-11T14:05:05.241Z,84.40
2022-08-11T14:07:37.467Z,84.80
2022-08-11T14:10:07.563Z,86.30
2022-08-11T14:13:13.645Z,86.00
2022-08-11T14:15:45.544Z,86.40
2022-08-11T14:18:18.801Z,85.00
2022-08-11T14:21:08.585Z,83.10
2022-08-11T14:23:40.171Z,85.50
2022-08-11T14:26:26.961Z,83.60
2022-08-11T14:28:57.255Z,85.20
2022-08-11T14:31:27.089Z,83.70
2022-08-11T14:34:06.882Z,86.80
2022-08-11T14:36:37.503Z,84.40
2022-08-11T14:39:08.408Z,85.70
2022-08-11T14:42:07.489Z,87.80
2022-08-11T14:45:04.443Z,84.90
2022-08-11T14:47:35.119Z,85.30
2022-08-11T14:50:11.443Z,84.10
2022-08-11T14:52:49.588Z,82.50
2022-08-11T14:55:50.470Z,82.70
2022-08-11T14:58:20.520Z,83.80
2022-08-11T15:00:52.484Z,82.00
2022-08-11T15:03:28.190Z,81.50
2022-08-11T15:05:58.660Z,83.40
2022-08-11T15:11:35.602Z,81.80
2022-08-11T15:14:05.399Z,84.40
2022-08-11T15:16:51.497Z,83.10
2022-08-11T15:19:21.956Z,82.70
2022-08-11T15:22:07.924Z,84.50
2022-08-11T15:24:37.566Z,82.70
2022-08-11T15:27:35.571Z,82.40
2022-08-11T15:30:36.980Z,83.70
2022-08-11T15:33:30.476Z,85.00
2022-08-11T15:36:16.853Z,82.40
2022-08-11T15:38:55.515Z,84.90
2022-08-11T15:41:54.633Z,84.00
2022-08-11T15:45:02.807Z,86.20
2022-08-11T15:47:36.500Z,83.90
2022-08-11T15:50:16.070Z,88.50
2022-08-11T15:52:49.473Z,89.10
2022-08-11T15:55:18.967Z,90.10
2022-08-11T15:58:06.415Z,90.50
2022-08-11T16:00:57.985Z,91.10
2022-08-11T16:04:07.530Z,92.20
2022-08-11T16:06:46.293Z,92.10
2022-08-11T16:09:46.018Z,92.70
2022-08-11T16:12:17.953Z,92.90
2022-08-11T16:15:05.617Z,93.30
2022-08-11T16:17:36.813Z,92.70
2022-08-11T16:20:06.640Z,93.10
2022-08-11T16:23:00.507Z,93.40
2022-08-11T16:27:05.523Z,93.80
2022-08-11T16:28:20.926Z,93.60
2022-08-11T16:31:05.864Z,95.40
2022-08-11T16:33:49.865Z,95.60
2022-08-11T16:36:43.255Z,94.40
2022-08-11T16:39:12.251Z,93.90
2022-08-11T16:41:59.176Z,93.90
2022-08-11T16:44:47.780Z,93.80
2022-08-11T16:47:18.115Z,95.10
2022-08-11T16:50:10.798Z,94.40
2022-08-11T16:52:53.987Z,95.30
2022-08-11T16:55:51.306Z,95.50
2022-08-11T16:58:30.818Z,95.30
2022-08-11T17:01:00.477Z,95.50
2022-08-11T17:03:52.178Z,96.50
2022-08-11T17:06:40.095Z,96.80
2022-08-11T17:09:28.081Z,97.40
2022-08-11T17:16:03.160Z,97.00
2022-08-11T17:18:47.367Z,97.00
2022-08-11T17:21:19.870Z,97.10
2022-08-11T17:24:16.010Z,97.50
2022-08-11T17:26:58.554Z,97.40
2022-08-11T17:29:32.337Z,97.30
2022-08-11T17:32:22.427Z,97.50
2022-08-11T17:35:09.572Z,98.10
2022-08-11T17:37:48.293Z,98.20
2022-08-11T17:40:21.661Z,98.10
2022-08-11T17:43:14.745Z,98.60
2022-08-11T17:46:02.408Z,99.10
2022-08-11T17:48:32.311Z,98.70
2022-08-11T17:51:02.120Z,99.40
2022-08-11T17:54:10.234Z,99.50
2022-08-11T17:57:28.342Z,99.30
2022-08-11T17:59:59.013Z,99.10
2022-08-11T18:02:53.280Z,99.10
2022-08-11T18:05:27.145Z,99.60
2022-08-11T18:08:15.022Z,99.90
2022-08-11T18:11:02.624Z,99.90
2022-08-11T18:13:55.060Z,99.90
2022-08-11T18:22:25.342Z,99.10
2022-08-11T18:25:13.390Z,99.70
2022-08-11T18:28:25.260Z,99.90
2022-08-11T18:31:15.974Z,99.90
2022-08-11T18:38:17.730Z,99.60
2022-08-11T18:41:04.338Z,99.40
2022-08-11T18:43:51.193Z,99.50
2022-08-11T18:46:41.387Z,99.90
2022-08-11T18:50:01.417Z,99.90
2022-08-11T18:52:42.840Z,99.90
2022-08-11T19:01:13.474Z,99.90
2022-08-11T19:04:11.182Z,99.90
2022-08-11T19:07:02.651Z,99.90
2022-08-11T19:09:49.194Z,99.90
2022-08-11T19:12:43.763Z,99.90
2022-08-11T19:15:31.221Z,99.90
2022-08-11T19:18:18.907Z,99.90
2022-08-11T19:21:10.851Z,99.90
2022-08-11T19:24:03.429Z,99.90
2022-08-11T19:26:53.248Z,99.90
2022-08-11T19:30:11.973Z,99.90
2022-08-11T19:32:52.219Z,99.90
2022-08-11T19:35:39.654Z,99.90
2022-08-11T19:38:27.096Z,99.90
2022-08-11T19:41:13.410Z,99.90
2022-08-11T19:44:03.361Z,99.90
2022-08-11T19:46:50.065Z,99.90
2022-08-11T19:49:36.938Z,99.90
2022-08-11T19:52:25.062Z,99.90
2022-08-11T19:55:11.471Z,99.90
2022-08-11T19:57:58.259Z,99.90
2022-08-11T20:00:44.294Z,99.90
2022-08-11T20:03:32.093Z,99.90
2022-08-11T20:44:07.018Z,99.90
2022-08-11T20:46:33.255Z,99.90
2022-08-11T20:49:20.471Z,99.90
2022-08-11T20:52:06.830Z,99.90
2022-08-11T20:54:53.289Z,99.90
2022-08-11T20:58:04.021Z,99.90
2022-08-11T21:00:47.615Z,99.90
2022-08-11T21:03:36.517Z,99.90
2022-08-11T21:06:33.011Z,99.90
2022-08-11T21:09:21.969Z,99.90
2022-08-11T21:12:13.426Z,99.90
2022-08-11T21:15:04.890Z,99.90
2022-08-11T21:18:00.778Z,99.90
2022-08-11T21:21:01.776Z,99.90
2022-08-11T21:23:49.881Z,99.90
2022-08-11T21:26:42.290Z,99.90
2022-08-11T21:29:29.232Z,99.90
2022-08-11T21:32:24.280Z,99.90
2022-08-11T21:35:20.778Z,99.90
2022-08-11T21:38:07.344Z,99.90
2022-08-11T21:40:55.671Z,99.90
2022-08-11T21:43:49.752Z,99.90
2022-08-11T21:46:36.889Z,99.90
2022-08-11T21:49:23.928Z,99.90
2022-08-11T21:52:12.399Z,99.90
2022-08-11T21:54:59.745Z,99.90
2022-08-11T21:57:48.184Z,99.90
2022-08-11T22:00:36.278Z,99.90
2022-08-11T22:03:23.105Z,99.90
2022-08-11T22:06:09.537Z,99.90
2022-08-11T22:08:57.150Z,99.90
2022-08-11T22:12:29.529Z,99.90
2022-08-11T22:15:18.475Z,99.90
2022-08-11T22:18:04.166Z,99.90
2022-08-11T22:20:51.048Z,99.90
2022-08-11T22:23:41.859Z,99.90
2022-08-11T22:26:29.949Z,99.90
2022-08-11T22:29:15.766Z,99.90
2022-08-11T22:32:02.067Z,99.90
2022-08-11T22:35:16.473Z,99.90
2022-08-11T22:38:04.301Z,99.90
2022-08-11T22:40:50.778Z,99.90
2022-08-11T22:47:53.182Z,99.90
2022-08-11T22:50:40.118Z,99.90
2022-08-11T22:57:41.369Z,99.90
2022-08-11T23:00:47.776Z,99.90
2022-08-11T23:37:29.023Z,99.90
2022-08-11T23:40:15.158Z,99.90
2022-08-11T23:43:01.322Z,99.90
2022-08-11T23:45:47.138Z,99.90
2022-08-11T23:48:34.530Z,99.90
2022-08-11T23:51:21.122Z,99.90
2022-08-11T23:54:13.103Z,99.90
2022-08-11T23:56:59.399Z,99.90
2022-08-11T23:59:45.297Z,99.90
